createdAt,value
2018-09-14T00:04:18.090Z,4.13
2018-09-14T00:09:11.987Z,3.97
2018-09-14T00:14:04.595Z,4.47
2018-09-14T00:18:57.222Z,4.17
2018-09-14T00:23:49.849Z,4.03
2018-09-14T00:28:42.479Z,3.97
2018-09-14T00:33:35.156Z,4.07
2018-09-14T00:38:27.760Z,3.90
2018-09-14T00:43:20.345Z,4.03
2018-09-14T00:48:12.983Z,3.93
2018-09-14T00:53:05.456Z,3.90
2018-09-14T00:57:58.063Z,3.70
2018-09-14T01:02:50.644Z,3.90
2018-09-14T01:07:43.414Z,3.90
2018-09-14T01:12:36.038Z,4.00
2018-09-14T01:17:28.593Z,3.80
2018-09-14T01:22:21.195Z,3.87
2018-09-14T01:27:13.839Z,3.87
2018-09-14T01:32:06.480Z,4.00
2018-09-14T01:36:59.042Z,4.20
2018-09-14T01:41:51.618Z,4.07
2018-09-14T01:46:44.168Z,4.37
2018-09-14T01:51:36.927Z,4.37
2018-09-14T01:56:29.481Z,4.30
2018-09-14T02:01:22.035Z,4.33
2018-09-14T02:06:14.851Z,3.63
2018-09-14T02:11:07.382Z,3.80
2018-09-14T02:15:59.946Z,3.93
2018-09-14T02:20:52.542Z,3.87
2018-09-14T02:25:45.128Z,3.90
2018-09-14T02:30:37.754Z,3.80
2018-09-14T02:35:30.366Z,3.80
2018-09-14T02:40:22.966Z,3.47
2018-09-14T02:45:15.613Z,3.67
2018-09-14T02:50:08.235Z,4.07
2018-09-14T02:55:00.851Z,3.93
2018-09-14T02:59:53.401Z,4.53
2018-09-14T03:04:45.963Z,6.00
2018-09-14T03:09:38.631Z,4.80
2018-09-14T03:14:31.206Z,4.47
2018-09-14T03:19:23.825Z,4.00
2018-09-14T03:24:16.395Z,4.50
2018-09-14T03:29:09.048Z,4.60
2018-09-14T03:34:01.601Z,4.83
2018-09-14T03:38:54.177Z,5.10
2018-09-14T03:43:47.000Z,5.60
2018-09-14T03:48:39.576Z,5.60
2018-09-14T03:53:32.151Z,5.20
2018-09-14T03:58:24.772Z,5.97
2018-09-14T04:03:17.416Z,6.00
2018-09-14T04:08:09.982Z,6.30
2018-09-14T04:13:02.580Z,6.90
2018-09-14T04:17:55.135Z,7.63
2018-09-14T04:22:47.717Z,8.07
2018-09-14T04:27:40.288Z,7.57
2018-09-14T04:32:32.891Z,8.30
2018-09-14T04:37:26.273Z,8.83
2018-09-14T04:42:18.851Z,10.40
2018-09-14T04:47:11.447Z,10.50
2018-09-14T04:52:04.106Z,9.03
2018-09-14T04:56:56.769Z,8.93
2018-09-14T05:01:49.375Z,8.67
2018-09-14T05:06:41.995Z,10.10
2018-09-14T05:11:34.571Z,9.63
2018-09-14T05:16:27.199Z,10.37
2018-09-14T05:21:19.778Z,10.23
2018-09-14T05:26:12.381Z,10.70
2018-09-14T05:31:05.263Z,11.00
2018-09-14T05:35:57.949Z,11.03
2018-09-14T05:40:50.652Z,11.03
2018-09-14T05:45:43.280Z,11.00
2018-09-14T05:50:35.822Z,10.93
2018-09-14T05:55:28.503Z,9.17
2018-09-14T06:00:21.091Z,9.50
2018-09-14T06:05:13.771Z,7.73
2018-09-14T06:10:06.940Z,6.90
2018-09-14T06:14:59.521Z,6.57
2018-09-14T06:19:52.289Z,6.77
2018-09-14T06:24:44.866Z,6.50
2018-09-14T06:29:37.557Z,6.47
2018-09-14T06:34:30.255Z,5.70
2018-09-14T06:39:22.821Z,5.73
2018-09-14T06:44:15.475Z,6.60
2018-09-14T06:49:08.059Z,6.10
2018-09-14T06:54:00.665Z,5.20
2018-09-14T06:58:53.251Z,5.17
2018-09-14T07:03:46.230Z,5.33
2018-09-14T07:08:38.793Z,5.03
2018-09-14T07:13:31.414Z,5.37
2018-09-14T07:18:23.937Z,5.10
2018-09-14T07:23:16.489Z,8.20
2018-09-14T07:28:09.086Z,8.40
2018-09-14T07:33:01.815Z,8.53
2018-09-14T07:37:54.549Z,6.40
2018-09-14T07:42:47.088Z,6.00
2018-09-14T07:47:39.696Z,6.17
2018-09-14T07:52:32.318Z,6.10
2018-09-14T07:57:24.969Z,5.93
2018-09-14T08:02:17.631Z,5.63
2018-09-14T08:07:10.215Z,5.00
2018-09-14T08:12:02.976Z,5.20
2018-09-14T08:16:55.509Z,5.23
2018-09-14T08:21:48.166Z,4.10
2018-09-14T08:26:40.712Z,4.83
2018-09-14T08:31:33.324Z,4.33
2018-09-14T08:36:25.963Z,4.27
2018-09-14T08:41:18.788Z,4.90
2018-09-14T08:46:11.519Z,3.63
2018-09-14T08:51:04.077Z,4.10
2018-09-14T08:55:56.683Z,4.17
2018-09-14T09:00:49.463Z,4.40
2018-09-14T09:05:42.152Z,5.00
2018-09-14T09:10:35.015Z,4.70
2018-09-14T09:15:27.841Z,4.87
2018-09-14T09:20:20.408Z,4.00
2018-09-14T09:25:12.983Z,4.47
2018-09-14T09:30:05.615Z,3.90
2018-09-14T09:34:58.249Z,7.10
2018-09-14T09:39:50.820Z,3.80
2018-09-14T09:44:43.436Z,4.13
2018-09-14T09:49:36.021Z,3.77
2018-09-14T09:54:28.587Z,4.70
2018-09-14T09:59:21.174Z,4.63
2018-09-14T10:04:20.425Z,4.23
2018-09-14T10:09:13.132Z,4.17
2018-09-14T10:14:05.762Z,4.70
2018-09-14T10:18:58.342Z,4.23
2018-09-14T10:23:50.906Z,3.90
2018-09-14T10:28:43.623Z,4.00
2018-09-14T10:33:36.354Z,3.80
2018-09-14T10:38:28.992Z,3.60
2018-09-14T10:43:21.656Z,3.70
2018-09-14T10:48:14.268Z,3.80
2018-09-14T10:53:06.986Z,3.17
2018-09-14T10:57:59.571Z,3.40
2018-09-14T11:02:52.367Z,4.10
2018-09-14T11:07:45.030Z,3.73
2018-09-14T11:12:37.653Z,3.33
2018-09-14T11:17:30.262Z,3.43
2018-09-14T11:22:22.919Z,3.37
2018-09-14T11:27:15.541Z,3.43
2018-09-14T11:32:08.103Z,3.53
2018-09-14T11:37:00.786Z,4.10
2018-09-14T11:41:53.695Z,3.80
2018-09-14T11:46:46.278Z,3.53
2018-09-14T11:51:38.924Z,3.67
2018-09-14T11:56:31.549Z,3.63
2018-09-14T12:01:24.298Z,4.50
2018-09-14T12:06:17.000Z,4.20
2018-09-14T12:11:09.574Z,4.03
2018-09-14T12:16:02.164Z,4.67
2018-09-14T12:20:54.892Z,3.80
2018-09-14T12:25:47.435Z,3.83
2018-09-14T12:30:40.183Z,3.13
2018-09-14T12:35:32.803Z,3.60
2018-09-14T12:40:25.705Z,3.23
2018-09-14T12:45:18.445Z,3.30
2018-09-14T12:50:11.218Z,3.17
2018-09-14T12:55:03.823Z,3.20
2018-09-14T12:59:56.503Z,3.60
2018-09-14T13:04:49.176Z,3.27
2018-09-14T13:09:42.067Z,3.23
2018-09-14T13:14:34.822Z,3.23
2018-09-14T13:19:28.141Z,3.00
2018-09-14T13:24:20.768Z,3.13
2018-09-14T13:29:13.578Z,2.73
2018-09-14T13:34:06.228Z,3.40
2018-09-14T13:38:58.871Z,4.37
2018-09-14T13:43:51.478Z,3.03
2018-09-14T13:48:44.147Z,3.63
2018-09-14T13:53:36.770Z,3.10
2018-09-14T13:58:29.532Z,3.17
2018-09-14T14:03:22.156Z,3.50
2018-09-14T14:08:14.859Z,3.07
2018-09-14T14:13:07.493Z,3.07
2018-09-14T14:18:00.208Z,3.03
2018-09-14T14:22:52.952Z,2.77
2018-09-14T14:27:45.558Z,3.40
2018-09-14T14:32:38.203Z,2.87
2018-09-14T14:37:30.820Z,2.77
2018-09-14T14:42:23.483Z,2.67
2018-09-14T14:47:16.210Z,2.50
2018-09-14T14:52:09.006Z,2.50
2018-09-14T14:57:01.604Z,2.67
2018-09-14T15:01:54.243Z,2.47
2018-09-14T15:06:46.833Z,1.70
2018-09-14T15:11:39.650Z,1.93
2018-09-14T15:16:32.340Z,2.13
2018-09-14T15:21:24.970Z,1.60
2018-09-14T15:26:17.725Z,1.50
2018-09-14T15:31:10.325Z,1.80
2018-09-14T15:36:02.950Z,1.60
2018-09-14T15:40:55.636Z,1.90
2018-09-14T15:45:48.171Z,2.10
2018-09-14T15:50:40.839Z,1.97
2018-09-14T15:55:33.449Z,1.90
2018-09-14T16:00:26.112Z,1.90
2018-09-14T16:05:18.797Z,1.80
2018-09-14T16:10:11.412Z,1.80
2018-09-14T16:15:04.020Z,1.90
2018-09-14T16:19:56.711Z,1.60
2018-09-14T16:24:49.371Z,1.70
2018-09-14T16:29:41.975Z,2.03
2018-09-14T16:34:34.585Z,2.30
2018-09-14T16:39:27.273Z,2.00
2018-09-14T16:44:19.871Z,1.87
2018-09-14T16:49:12.456Z,1.90
2018-09-14T16:54:05.066Z,2.00
2018-09-14T16:58:57.720Z,1.90
2018-09-14T17:03:50.273Z,1.53
2018-09-14T17:08:42.805Z,2.00
2018-09-14T17:13:35.295Z,2.00
2018-09-14T17:18:27.858Z,1.90
2018-09-14T17:23:20.959Z,2.33
2018-09-14T17:28:13.919Z,2.63
2018-09-14T17:33:06.494Z,2.60
2018-09-14T17:37:59.113Z,2.87
2018-09-14T17:42:51.698Z,3.83
2018-09-14T17:47:44.275Z,3.20
2018-09-14T17:52:36.781Z,2.60
2018-09-14T17:57:29.351Z,2.67
2018-09-14T18:02:22.064Z,3.63
2018-09-14T18:07:14.633Z,3.70
2018-09-14T18:12:07.207Z,3.27
2018-09-14T18:16:59.769Z,4.00
2018-09-14T18:21:52.411Z,3.93
2018-09-14T18:26:45.112Z,2.97
2018-09-14T18:31:37.763Z,5.23
2018-09-14T18:36:30.529Z,3.80
2018-09-14T18:41:23.180Z,4.03
2018-09-14T18:46:15.864Z,5.60
2018-09-14T18:51:08.542Z,4.57
2018-09-14T18:56:01.155Z,5.03
2018-09-14T19:00:53.875Z,5.07
2018-09-14T19:05:46.580Z,6.00
2018-09-14T19:10:39.149Z,6.50
2018-09-14T19:15:31.752Z,6.37
2018-09-14T19:20:24.421Z,6.20
2018-09-14T19:25:16.992Z,6.07
2018-09-14T19:30:09.845Z,5.70
2018-09-14T19:35:02.468Z,5.67
2018-09-14T19:39:55.124Z,5.17
2018-09-14T19:44:47.852Z,4.77
2018-09-14T19:49:40.483Z,4.97
2018-09-14T19:54:33.076Z,4.90
2018-09-14T19:59:25.828Z,5.40
2018-09-14T20:04:18.571Z,5.17
2018-09-14T20:09:13.268Z,5.03
2018-09-14T20:14:05.927Z,4.83
2018-09-14T20:18:58.500Z,4.87
2018-09-14T20:23:51.083Z,4.50
2018-09-14T20:28:43.723Z,5.20
2018-09-14T20:33:36.384Z,4.93
2018-09-14T20:38:29.038Z,5.10
2018-09-14T20:43:21.626Z,5.20
2018-09-14T20:48:14.342Z,5.47
2018-09-14T20:53:06.987Z,5.40
2018-09-14T20:57:59.622Z,5.90
2018-09-14T21:02:52.767Z,6.07
2018-09-14T21:07:45.282Z,5.53
2018-09-14T21:12:37.847Z,5.40
2018-09-14T21:17:30.468Z,5.50
2018-09-14T21:22:23.059Z,5.63
2018-09-14T21:27:15.723Z,6.17
2018-09-14T21:32:08.286Z,5.83
2018-09-14T21:37:00.983Z,6.07
2018-09-14T21:41:53.534Z,6.17
2018-09-14T21:46:46.057Z,6.17
2018-09-14T21:51:38.751Z,6.40
2018-09-14T21:56:31.261Z,6.13
2018-09-14T22:01:28.099Z,6.53
2018-09-14T22:06:20.807Z,6.40
2018-09-14T22:11:13.386Z,6.37
2018-09-14T22:16:05.971Z,6.50
2018-09-14T22:20:58.581Z,6.47
2018-09-14T22:25:51.384Z,6.10
2018-09-14T22:30:43.951Z,6.17
2018-09-14T22:35:36.538Z,6.37
2018-09-14T22:40:29.115Z,6.63
2018-09-14T22:45:21.734Z,6.73
2018-09-14T22:50:14.306Z,6.57
2018-09-14T22:55:06.867Z,6.47
2018-09-14T22:59:59.503Z,6.50
2018-09-14T23:04:52.188Z,6.50
2018-09-14T23:09:44.761Z,6.53
2018-09-14T23:14:37.343Z,6.57
2018-09-14T23:19:29.898Z,6.83
2018-09-14T23:24:22.466Z,6.60
2018-09-14T23:29:15.048Z,6.70
2018-09-14T23:34:07.643Z,6.73
2018-09-14T23:39:00.201Z,6.10
2018-09-14T23:43:52.827Z,5.90
2018-09-14T23:48:45.403Z,6.47
2018-09-14T23:53:37.980Z,6.87
2018-09-14T23:58:30.556Z,6.43
